Portada
METAR-TAF:

METAR-TAF

Aeropuertos :

Kirkwall, Escocia

latitud: 58-57N, longitud: 002-54W, altitud: 21 m

Observación

El informe se hizo hace 27 minutos, a las 11:50 UTC
Viento 7 kt del sur-suroeste
Temperatura 17°C
Humedad 77%
Presión 1009 hPa
Visibilidad 10 km o más
Escasas nubes a una altura de 700 ft
chaparrones en las proximidades

METAR: EGPA 041150Z 20007KT 9999 VCSH FEW007 17/13 Q1009

Hora: 13:17 (12:17 UTC)

Pronóstico

El informe se hizo hace 1 hora y 19 minutos, a las 10:58 UTC
Pronóstico válido del 04 a las 12 UTC al 04 a las 21 UTC
Viento 7 kt del sur
Visibilidad 10 km o más
Escasas nubes a una altura de 3000 ft
Probabilidad 40% :
Temporalmente
del 04 a las 12 UTC al 04 a las 21 UTC
Visibilidad: 6000 m
lluvia, chaparrones de lluvia

TAF: EGPA 041058Z 0412/0421 18007KT 9999 FEW030 PROB40 TEMPO 0412/0421 6000 RA SHRA

Observaciones y pronósticos meteorológicos de más de 4000 aeropuertos (mensajes METAR y TAF).

Los puntos amarillos y rojos representan las estaciones disponibles.

Ponga el ratón en el punto deseado para ver el nombre de la estación.

Haga clic para ver las observaciones y los pronósticos meteorológicos.

Para cambiar el mapa : haga clic en los botones verdes con una cruz de color negro para hacer un zoom, en el botón verde con un guión para alejar o en las flechas verdes para mapas adyacentes.


METAR-TAF: